Ashland, OR

5:15 PM PDT on September 30, 2014 (GMT -0700)
Tolman Creek Mountain | Change Station
CLOSE
Current Station
Personal Weather Station
Location: Ashland, OR
Elevation: 2884 ft
Nearby Weather Stations

Elev 2884 ft 42.16 °N, 122.67 °W | Updated 2 minutes ago

Partly Cloudy
Partly Cloudy
62.2 °F
Feels Like 62.2 °F
N
3.7
Wind Variable Wind from SSE

Today
High -- | Low -- °F
--% Chance of Precip.
Yesterday
High -- | Low -- °F
Precip. -- in
7:06 AM 6:53 PM
Waxing Crescent, 41% visible
Pressure 30.09 in
Visibility 10.0 miles
Clouds Mostly Cloudy 6000 ft
Dew Point 42 °F
Humidity 48%
Rainfall 0.13 in
Snow Depth 0 in , 1 in , 0 in
UV 1 out of 12
Pollen 3.40 out of 12
Air Quality Not available.
Flu Activity Not available.
METAR KMFR 302353Z 35008G16KT 10SM BKN060 20/04 A3009 RMK AO2 SLP187 T02000044 10211 20156 56014

More Conditions Fewer Conditions

Pressure 30.09 in
Visibility 10.0 miles
Clouds Mostly Cloudy 6000 ft
Dew Point 42 °F
Humidity 48%
Rainfall 0.13 in
Snow Depth 0 in , 1 in , 0 in
UV 1 out of 12
Pollen 3.40 out of 12
Air Quality Not available.
Flu Activity Not available.
METAR KMFR 302353Z 35008G16KT 10SM BKN060 20/04 A3009 RMK AO2 SLP187 T02000044 10211 20156 56014

More Conditions Fewer Conditions

10-Day Weather Forecast

Almanac

Astronomy

Sep. 30, 2014 Rise Set
Actual Time 7:06 AM PDT 6:53 PM PDT
Civil Twilight 6:39 AM PDT 7:21 PM PDT
Nautical Twilight 6:06 AM PDT 7:54 PM PDT
Astronomical Twilight 5:33 AM PDT 8:26 PM PDT
Moon 1:24 PM PDT (9/30) 11:25 PM PDT (9/30)
Length of Visible Light 12h 42m
Length of Day
11h 47m
Tomorrow will be 2m 48s shorter.
Waxing Crescent, 41% of the Moon is Illuminated
Today
Waxing Crescent
Oct 1
First Quarter
Oct 8
Full
Oct 15
Last Quarter
Oct 23
New

Today's Extremes

State Highs State Lows

Community

WunderPhotos

Upload Photos

1,757,788 photos uploaded!

Nearby

Snow Depth

Station Depth Elevation
Clackamas Lake 0 in 3400 ft
Clear Lake 1 in 3500 ft
Sevenmile Marsh 0 in 6200 ft
Jump Off Joe 0 in 3500 ft
North Fork 0 in 3120 ft

Earthquake Activity

City Distance Mag. Time & Date
No recent earthquake activity has been reported nearby.
Minimum magnitude displayed is 2.5.

Coastal Water Temperatures

Place Temperature
No Stations Reporting

Nearby Weather Stations